Arenys de Munt, Spain
Current Conditions -  °F | °C
As of 4:00 PM on Sunday 21 Dec 2014 (Local Time) from LELL Reporting Station
Clear Clear  
Wind Chill: 57°   Ceiling: Unl
Heat Index: 57°   Visibility: 6mi
Dew Point: 45°   Wind: 6mph
Humidity: 63%   Direction: 250°WSW
Pressure: 30.42"   Gusts: NA
Location:  41.61°N, 2.54°E
Report Text: LELL 211500Z 25005KT 220V280 CAVOK 14/07 Q1030
Loading
Personal Weather Stations






























Interactive Weather Map New forecast layout! Learn more

10-Day Weather Forecast

Advertisements
Track Severe Weather on mobile